НИСЛЭГИЙН ЦАГ УУРЫН ТӨВ

2017.12.14        EN 

Идэвхитэй хуудас: Нүүр хуудас arrow TAF&METAR arrow Latest arrow TAF 1200/1209




Их уншигдсан
Сүүлд нэмэгдсэн
TAF 1200/1209 Хэвлэ Имэйл
Бичсэн: Administrator   
Thursday, 11 November 2010
FCMO31 ZMUL 112254
TAF ZMUL 112255Z 1200/1209 VRB02MPS CAVOK=
FCMO31 ZMBU 112253
TAF ZMBU 112252Z 1200/1209 32005MPS 9999 BKN100=
FCMO31 ZMKD 112253
TAF ZMKD 112253Z 1200/1209 VRB02MPS 9999 SCT040 SCT100=3D=
FCMO31 ZMMN 112255
TAF ZMMN 112255Z 1200/1209 29005MPS 9999 SCT035 SCT100=
FCMO31 ZMAH 112255
TAF ZMAH 112253Z 1200/1209 34006MPS 9999 SCT030 SCT100=3D=
FCMO31 ZMKD 112254
TAF ZMBS 112254Z 1200/1209 VRB02MPS 9999 SCT100=3D=
FCMO31 ZMDZ 112256
TAF ZMDZ 112300Z 1200/1209 32010MPS 9999 SCT035 SCT090=
FCMO31 ZMUH 112256
TAF ZMUH 112255Z 1200/1209 29005MPS 9999 BKN100=
FCMO31 ZMMG 112256
TAF ZMMG 112255Z 1200/1209 34006MPS CAVOK=
FCMO31 ZMBH 112259
TAF ZMBH 112259Z 1200/1209 VRB02MPS CAVOK=
FCMO31 ZMCD 112300
TAF ZMCD 112257Z 1200/1209 VRB02MPS 9999 BKN027 BKN100=
FCMO31 ZMAT 112301
TAF ZMAT 112300Z 1200/1209 29005MPS 9999 SCT030 SCT100=
FCMO31 ZMUG 112301
TAF ZMUG 112250Z 1200/1209 VRB02MPS 9999 FEW030 SCT100=
FCMO31 ZMUB 112301
TAF ZMUB 112300Z 1200/1209 34005MPS 9999 SCT030 BKN080 TEMPO 1200/1203 6000 -SN BECMG 1201/1203 34008MPS=
TAF TOIM ZMSONJINBOLDOG 112300Z 1200/1209 34008MPS 9999 SCT030 BKN080 TEMPO 1200/1203 6000 -SN=
TAF ZMGT 112300Z 1200/1209 36010G15MPS 8000 SN BLSN SCT030 BKN080 TEMPO 1121/1202 3000=
TAF ZMOT 112300Z 1200/1209 33009MPS 9999 SCT030 BKN080 TEMPO 1200/1205 6000 SN BLSN=
FCMO31 ZMDN 112315 RRA
TAF ZMDN 112315Z 1200/1209 32004MPS 9999 SCT100=
SAMO31 ZMUB 112327
METAR ZMUB 112330Z 34004MPS 9999 FEW033 M13/M15 Q1009 NOSIG RMK QFE650.6 84=
Шинэчилсэн: ( Thursday, 11 November 2010 )
 
Дараах >
Онлайнд
Гишүүд: 258
Мэдээ: 325
Вэб холбоосууд: 10
Зочлогчид: 795437